Flormar — EA4198 — position and weather

sailwx.info

Track history (hours):
 
Tides and Currents Weather Stations Pressure Air Temp Water Temp Dewpoint Dewpoint Depression Visibility Wind Speed Wind Dir Waves Ship Positions

Flormar

Last reported at 2018-Jun-23 02:10 UTC. Time now 2018-Jun-24 03:42 UTC.
Position N 38°07' E 000°22'.

Length 23 m; draft 2.4 m.

Type: Other ship. MMSI: 224120850.

Date/timePositionNaut miles runAvg speedWind from/ knotsBaromVisibWave heightAir tempDewpointWater temp
2018-Jun-23 02:10N 38°07' E 000°22'1 4.1
2018-Jun-23 01:51N 38°08' E 000°21'1 3.2
2018-Jun-23 01:30N 38°09' E 000°20'6 1.1
2018-Jun-22 20:05N 38°05' E 000°26'13 1.8
2018-Jun-22 12:52N 37°60' E 000°11'1 1.7
2018-Jun-22 12:29N 37°59' E 000°10'1 1.3
2018-Jun-22 11:59N 37°59' E 000°11'1 1.4
2018-Jun-22 11:30N 37°59' E 000°11'7 2.0
2018-Jun-22 07:53N 37°56' E 000°20'3 1.9
2018-Jun-22 06:32N 37°54' E 000°22'0 1.7
2018-Jun-22 06:26N 37°54' E 000°22'1 1.8
2018-Jun-22 06:00N 37°53' E 000°23'1 1.4
2018-Jun-22 05:30N 37°53' E 000°24'1 1.4
2018-Jun-22 04:52N 37°53' E 000°25'0 0.9
2018-Jun-22 04:30N 37°53' E 000°25'2 0.6
2018-Jun-22 00:14N 37°54' E 000°22'2 5.8
2018-Jun-21 23:50N 37°52' E 000°24'3 1.9
2018-Jun-21 22:22N 37°52' E 000°27'6 7.0
2018-Jun-21 21:33N 37°57' E 000°26'13 3.9
2018-Jun-21 18:18N 37°46' E 000°19'0 1.4
2018-Jun-21 18:00N 37°46' E 000°19'1 1.6
2018-Jun-21 17:29N 37°47' E 000°19'3 1.2
2018-Jun-21 14:34N 37°50' E 000°16'0 0.6
2018-Jun-21 14:28N 37°50' E 000°16'0 0.5
2018-Jun-21 13:52N 37°50' E 000°16'0 0.8
2018-Jun-21 13:30N 37°49' E 000°17'3 2.3
2018-Jun-21 12:23N 37°51' E 000°15'1 0.1
2018-Jun-20 17:53N 37°52' E 000°15'40 5.2
2018-Jun-20 10:19N 38°09' W 000°31'2 0.5
2018-Jun-20 05:34N 38°09' W 000°28'1 8.6
2018-Jun-20 05:30N 38°09' W 000°27'6 8.6
2018-Jun-20 04:51N 38°07' W 000°21'3 8.6
2018-Jun-20 04:30N 38°05' W 000°17'4 8.5
2018-Jun-20 04:00N 38°03' W 000°13'19 1.4
2018-Jun-19 14:18N 37°57' W 000°35'3 8.0
2018-Jun-19 13:59N 37°57' W 000°38'3 1.3
2018-Jun-19 11:55N 37°58' W 000°41'0 0.0
2018-Jun-19 11:30N 37°58' W 000°41'0 0.0
2018-Jun-19 11:00N 37°58' W 000°41'0 0.6
2018-Jun-19 10:30N 37°58' W 000°41'3 6.5
2018-Jun-19 10:00N 37°59' W 000°37'  
2018-Jun-16 13:49N 38°11' W 000°34'  
Track history (hours):
 
Tides and Currents Weather Stations Pressure Air Temp Water Temp Dewpoint Dewpoint Depression Visibility Wind Speed Wind Dir Waves Ship Positions

Flormar

Last reported at 2018-Jun-23 02:10 UTC. Time now 2018-Jun-24 03:42 UTC.
Position N 38°07' E 000°22'.

Length 23 m; draft 2.4 m.

Type: Other ship. MMSI: 224120850.

Date/timePositionNaut miles runAvg speedWind from/ knotsBaromVisibWave heightAir tempDewpointWater temp
2018-Jun-23 02:10N 38°07' E 000°22'1 4.1
2018-Jun-23 01:51N 38°08' E 000°21'1 3.2
2018-Jun-23 01:30N 38°09' E 000°20'6 1.1
2018-Jun-22 20:05N 38°05' E 000°26'13 1.8
2018-Jun-22 12:52N 37°60' E 000°11'1 1.7
2018-Jun-22 12:29N 37°59' E 000°10'1 1.3
2018-Jun-22 11:59N 37°59' E 000°11'1 1.4
2018-Jun-22 11:30N 37°59' E 000°11'7 2.0
2018-Jun-22 07:53N 37°56' E 000°20'3 1.9
2018-Jun-22 06:32N 37°54' E 000°22'0 1.7
2018-Jun-22 06:26N 37°54' E 000°22'1 1.8
2018-Jun-22 06:00N 37°53' E 000°23'1 1.4
2018-Jun-22 05:30N 37°53' E 000°24'1 1.4
2018-Jun-22 04:52N 37°53' E 000°25'0 0.9
2018-Jun-22 04:30N 37°53' E 000°25'2 0.6
2018-Jun-22 00:14N 37°54' E 000°22'2 5.8
2018-Jun-21 23:50N 37°52' E 000°24'3 1.9
2018-Jun-21 22:22N 37°52' E 000°27'6 7.0
2018-Jun-21 21:33N 37°57' E 000°26'13 3.9
2018-Jun-21 18:18N 37°46' E 000°19'0 1.4
2018-Jun-21 18:00N 37°46' E 000°19'1 1.6
2018-Jun-21 17:29N 37°47' E 000°19'3 1.2
2018-Jun-21 14:34N 37°50' E 000°16'0 0.6
2018-Jun-21 14:28N 37°50' E 000°16'0 0.5
2018-Jun-21 13:52N 37°50' E 000°16'0 0.8
2018-Jun-21 13:30N 37°49' E 000°17'3 2.3
2018-Jun-21 12:23N 37°51' E 000°15'1 0.1
2018-Jun-20 17:53N 37°52' E 000°15'40 5.2
2018-Jun-20 10:19N 38°09' W 000°31'2 0.5
2018-Jun-20 05:34N 38°09' W 000°28'1 8.6
2018-Jun-20 05:30N 38°09' W 000°27'6 8.6
2018-Jun-20 04:51N 38°07' W 000°21'3 8.6
2018-Jun-20 04:30N 38°05' W 000°17'4 8.5
2018-Jun-20 04:00N 38°03' W 000°13'19 1.4
2018-Jun-19 14:18N 37°57' W 000°35'3 8.0
2018-Jun-19 13:59N 37°57' W 000°38'3 1.3
2018-Jun-19 11:55N 37°58' W 000°41'0 0.0
2018-Jun-19 11:30N 37°58' W 000°41'0 0.0
2018-Jun-19 11:00N 37°58' W 000°41'0 0.6
2018-Jun-19 10:30N 37°58' W 000°41'3 6.5
2018-Jun-19 10:00N 37°59' W 000°37'  
2018-Jun-16 13:49N 38°11' W 000°34'  

Dump ship's entire track history